createdAt,value
2022-08-25T00:02:01.987Z,1012.83
2022-08-25T00:03:01.473Z,1012.81
2022-08-25T00:05:05.530Z,1012.79
2022-08-25T00:06:05.484Z,1012.77
2022-08-25T00:08:09.995Z,1012.77
2022-08-25T00:09:09.522Z,1012.81
2022-08-25T00:11:14.018Z,1012.78
2022-08-25T00:12:13.562Z,1012.78
2022-08-25T00:14:17.584Z,1012.77
2022-08-25T00:15:17.638Z,1012.83
2022-08-25T00:17:22.116Z,1012.79
2022-08-25T00:18:21.654Z,1012.79
2022-08-25T00:20:14.616Z,1012.81
2022-08-25T00:21:14.635Z,1012.84
2022-08-25T00:23:19.132Z,1012.82
2022-08-25T00:24:19.814Z,1012.82
2022-08-25T00:25:18.715Z,1012.83
2022-08-25T00:26:18.742Z,1012.86
2022-08-25T00:27:18.823Z,1012.83
2022-08-25T00:28:18.803Z,1012.84
2022-08-25T00:29:18.834Z,1012.84
2022-08-25T00:30:18.869Z,1012.86
2022-08-25T00:31:18.989Z,1012.83
2022-08-25T00:32:18.923Z,1012.82
2022-08-25T00:33:18.961Z,1012.85
2022-08-25T00:34:18.983Z,1012.85
2022-08-25T00:35:19.015Z,1012.86
2022-08-25T00:36:19.042Z,1012.88
2022-08-25T00:37:19.072Z,1012.91
2022-08-25T00:38:19.101Z,1012.88
2022-08-25T00:39:19.132Z,1012.84
2022-08-25T00:40:19.227Z,1012.92
2022-08-25T00:41:19.192Z,1012.91
2022-08-25T00:42:19.220Z,1012.90
2022-08-25T00:43:19.250Z,1012.90
2022-08-25T00:44:19.286Z,1012.89
2022-08-25T00:45:19.307Z,1012.90
2022-08-25T00:46:19.397Z,1012.90
2022-08-25T00:47:19.370Z,1012.92
2022-08-25T00:48:19.397Z,1012.91
2022-08-25T00:49:24.668Z,1012.91
2022-08-25T00:50:19.461Z,1012.91
2022-08-25T00:51:19.487Z,1012.96
2022-08-25T00:52:19.516Z,1012.93
2022-08-25T00:53:19.555Z,1012.94
2022-08-25T00:54:19.576Z,1012.93
2022-08-25T00:55:19.602Z,1012.96
2022-08-25T00:56:19.631Z,1012.97
2022-08-25T00:57:19.665Z,1012.95
2022-08-25T00:58:19.699Z,1012.95
2022-08-25T00:59:19.724Z,1012.94
2022-08-25T01:00:19.753Z,1012.92
2022-08-25T01:01:19.877Z,1012.89
2022-08-25T01:02:19.869Z,1012.89
2022-08-25T01:03:19.849Z,1012.93
2022-08-25T01:04:19.879Z,1012.91
2022-08-25T01:05:19.900Z,1012.91
2022-08-25T01:06:19.933Z,1012.93
2022-08-25T01:07:19.959Z,1012.92
2022-08-25T01:08:19.992Z,1012.92
2022-08-25T01:09:20.046Z,1012.93
2022-08-25T01:10:20.050Z,1012.90
2022-08-25T01:11:20.078Z,1012.90
2022-08-25T01:12:20.108Z,1012.93
2022-08-25T01:13:20.137Z,1012.94
2022-08-25T01:14:20.166Z,1012.92
2022-08-25T01:15:20.193Z,1012.92
2022-08-25T01:16:20.293Z,1012.92
2022-08-25T01:17:20.260Z,1012.90
2022-08-25T01:18:20.282Z,1012.90
2022-08-25T01:19:20.311Z,1012.89
2022-08-25T01:20:20.353Z,1012.87
2022-08-25T01:21:20.367Z,1012.90
2022-08-25T01:22:20.401Z,1012.87
2022-08-25T01:23:20.431Z,1012.93
2022-08-25T01:24:20.458Z,1012.89
2022-08-25T01:25:20.487Z,1012.91
2022-08-25T01:26:25.134Z,1012.89
2022-08-25T01:27:20.548Z,1012.91
2022-08-25T01:28:20.576Z,1012.93
2022-08-25T01:29:20.605Z,1012.93
2022-08-25T01:30:20.648Z,1012.91
2022-08-25T01:31:23.890Z,1012.93
2022-08-25T01:32:20.691Z,1012.90
2022-08-25T01:33:20.724Z,1012.92
2022-08-25T01:34:20.746Z,1012.95
2022-08-25T01:35:20.777Z,1012.92
2022-08-25T01:36:20.804Z,1012.94
2022-08-25T01:37:20.838Z,1012.93
2022-08-25T01:38:20.865Z,1012.94
2022-08-25T01:39:20.897Z,1012.91
2022-08-25T01:40:20.948Z,1012.95
2022-08-25T01:41:20.952Z,1012.96
2022-08-25T01:42:20.985Z,1012.95
2022-08-25T01:43:21.011Z,1013.01
2022-08-25T01:44:21.044Z,1012.98
2022-08-25T01:45:21.072Z,1012.94
2022-08-25T01:46:21.160Z,1012.96
2022-08-25T01:47:21.127Z,1012.97
2022-08-25T01:48:21.156Z,1013.00
2022-08-25T01:49:21.190Z,1012.97
2022-08-25T01:50:21.216Z,1012.96
2022-08-25T01:51:21.243Z,1012.96
2022-08-25T01:52:21.351Z,1012.96
2022-08-25T01:53:21.303Z,1012.97
2022-08-25T01:54:21.336Z,1012.94
2022-08-25T01:55:21.359Z,1012.98
2022-08-25T01:56:21.388Z,1012.97
2022-08-25T01:57:21.417Z,1012.96
2022-08-25T01:58:21.449Z,1012.96
2022-08-25T01:59:23.838Z,1012.97
2022-08-25T02:00:21.503Z,1012.98
2022-08-25T02:01:21.601Z,1013.00
2022-08-25T02:02:21.588Z,1012.99
2022-08-25T02:03:21.588Z,1012.95
2022-08-25T02:04:21.734Z,1012.96
2022-08-25T02:05:23.723Z,1012.96
2022-08-25T02:06:21.678Z,1012.98
2022-08-25T02:07:21.708Z,1012.95
2022-08-25T02:08:21.733Z,1012.95
2022-08-25T02:09:21.766Z,1012.95
2022-08-25T02:10:21.792Z,1012.97
2022-08-25T02:11:21.824Z,1012.93
2022-08-25T02:12:21.847Z,1012.97
2022-08-25T02:13:26.730Z,1012.96
2022-08-25T02:14:21.907Z,1012.96
2022-08-25T02:15:21.934Z,1012.93
2022-08-25T02:16:21.999Z,1012.94
2022-08-25T02:17:21.994Z,1012.89
2022-08-25T02:18:22.022Z,1012.91
2022-08-25T02:19:22.053Z,1012.88
2022-08-25T02:20:22.100Z,1012.87
2022-08-25T02:21:22.110Z,1012.84
2022-08-25T02:22:22.144Z,1012.87
2022-08-25T02:23:22.170Z,1012.84
2022-08-25T02:24:22.194Z,1012.83
2022-08-25T02:25:22.226Z,1012.81
2022-08-25T02:26:22.252Z,1012.82
2022-08-25T02:27:22.281Z,1012.83
2022-08-25T02:28:22.313Z,1012.79
2022-08-25T02:29:22.341Z,1012.82
2022-08-25T02:30:22.388Z,1012.80
2022-08-25T02:31:22.396Z,1012.82
2022-08-25T02:32:22.422Z,1012.76
2022-08-25T02:33:22.454Z,1012.74
2022-08-25T02:34:22.480Z,1012.75
2022-08-25T02:35:22.511Z,1012.74
2022-08-25T02:36:22.537Z,1012.74
2022-08-25T02:37:22.569Z,1012.70
2022-08-25T02:38:22.594Z,1012.69
2022-08-25T02:39:22.623Z,1012.70
2022-08-25T02:40:22.695Z,1012.67
2022-08-25T02:41:22.680Z,1012.64
2022-08-25T02:42:22.708Z,1012.65
2022-08-25T02:43:22.736Z,1012.66
2022-08-25T02:44:22.763Z,1012.69
2022-08-25T02:45:22.795Z,1012.63
2022-08-25T02:46:22.876Z,1012.63
2022-08-25T02:47:24.594Z,1012.61
2022-08-25T02:48:22.879Z,1012.59
2022-08-25T02:49:22.904Z,1012.60
2022-08-25T02:50:22.934Z,1012.61
2022-08-25T02:51:22.961Z,1012.57
2022-08-25T02:52:22.993Z,1012.56
2022-08-25T02:53:23.021Z,1012.57
2022-08-25T02:54:23.051Z,1012.58
2022-08-25T02:55:23.075Z,1012.56
2022-08-25T02:56:23.101Z,1012.60
2022-08-25T02:57:23.133Z,1012.56
2022-08-25T02:58:23.162Z,1012.56
2022-08-25T02:59:23.188Z,1012.60
2022-08-25T03:00:23.286Z,1012.57
2022-08-25T03:01:28.677Z,1012.55
2022-08-25T03:02:23.272Z,1012.61
2022-08-25T03:03:23.300Z,1012.60
2022-08-25T03:04:23.362Z,1012.62
2022-08-25T03:05:23.361Z,1012.61
2022-08-25T03:06:23.386Z,1012.59
2022-08-25T03:07:23.414Z,1012.62
2022-08-25T03:08:23.441Z,1012.63
2022-08-25T03:09:23.470Z,1012.62
2022-08-25T03:10:23.499Z,1012.60
2022-08-25T03:11:30.704Z,1012.60
2022-08-25T03:14:32.007Z,1012.60
2022-08-25T03:15:31.573Z,1012.58
2022-08-25T03:17:35.667Z,1012.59
2022-08-25T03:18:35.601Z,1012.59
2022-08-25T03:20:28.584Z,1012.61
2022-08-25T03:21:28.563Z,1012.60
2022-08-25T03:23:32.614Z,1012.56
2022-08-25T03:24:32.605Z,1012.58
2022-08-25T03:26:37.101Z,1012.53
2022-08-25T03:27:36.650Z,1012.52
2022-08-25T03:29:29.795Z,1012.51
2022-08-25T03:30:29.817Z,1012.54
2022-08-25T03:32:35.806Z,1012.54
2022-08-25T03:33:33.861Z,1012.50
2022-08-25T03:35:37.894Z,1012.51
2022-08-25T03:36:37.911Z,1012.55
2022-08-25T03:38:42.403Z,1012.52
2022-08-25T03:39:41.953Z,1012.54
2022-08-25T03:41:45.976Z,1012.55
2022-08-25T03:42:45.995Z,1012.50
2022-08-25T03:44:50.492Z,1012.48
2022-08-25T03:45:50.071Z,1012.51
2022-08-25T03:47:54.069Z,1012.48
2022-08-25T03:48:54.087Z,1012.50
2022-08-25T03:50:50.670Z,1012.49
2022-08-25T03:51:47.047Z,1012.44
2022-08-25T03:53:51.073Z,1012.43
2022-08-25T03:54:51.091Z,1012.41
2022-08-25T03:56:55.585Z,1012.38
2022-08-25T03:57:55.141Z,1012.38
2022-08-25T03:59:59.165Z,1012.33
2022-08-25T04:00:59.230Z,1012.29
2022-08-25T04:03:03.677Z,1012.29
2022-08-25T04:04:03.228Z,1012.26
2022-08-25T04:06:07.253Z,1012.23
2022-08-25T04:07:07.769Z,1012.27
2022-08-25T04:09:12.162Z,1012.28
2022-08-25T04:10:11.506Z,1012.28
2022-08-25T04:12:15.536Z,1012.24
2022-08-25T04:13:15.550Z,1012.23
2022-08-25T04:15:20.050Z,1012.25
2022-08-25T04:16:19.641Z,1012.24
2022-08-25T04:18:23.616Z,1012.25
2022-08-25T04:19:23.635Z,1012.25
2022-08-25T04:21:28.126Z,1012.23
2022-08-25T04:22:27.690Z,1012.24
2022-08-25T04:24:31.714Z,1012.22
2022-08-25T04:25:31.740Z,1012.24
2022-08-25T04:27:36.226Z,1012.25
2022-08-25T04:28:35.787Z,1012.22
2022-08-25T04:30:29.605Z,1012.24
2022-08-25T04:31:29.456Z,1012.25
2022-08-25T04:32:29.457Z,1012.25
2022-08-25T04:33:29.487Z,1012.26
2022-08-25T04:34:31.452Z,1012.30
2022-08-25T04:35:29.540Z,1012.32
2022-08-25T04:36:29.567Z,1012.29
2022-08-25T04:37:29.595Z,1012.30
2022-08-25T04:38:29.621Z,1012.28
2022-08-25T04:39:29.654Z,1012.26
2022-08-25T04:40:29.719Z,1012.29
2022-08-25T04:41:29.707Z,1012.27
2022-08-25T04:42:29.734Z,1012.30
2022-08-25T04:43:29.764Z,1012.30
2022-08-25T04:44:29.794Z,1012.28
2022-08-25T04:45:29.865Z,1012.23
2022-08-25T04:46:29.848Z,1012.21
2022-08-25T04:47:29.871Z,1012.21
2022-08-25T04:48:29.945Z,1012.20
2022-08-25T04:49:29.933Z,1012.22
2022-08-25T04:50:29.959Z,1012.19
2022-08-25T04:51:29.983Z,1012.20
2022-08-25T04:52:30.012Z,1012.17
2022-08-25T04:53:30.043Z,1012.18
2022-08-25T04:54:36.035Z,1012.17
2022-08-25T04:55:30.097Z,1012.16
2022-08-25T04:56:30.128Z,1012.12
2022-08-25T04:57:30.150Z,1012.11
2022-08-25T04:58:30.180Z,1012.14
2022-08-25T04:59:30.775Z,1012.11
2022-08-25T05:00:30.254Z,1012.14
2022-08-25T05:01:30.300Z,1012.15
2022-08-25T05:02:30.291Z,1012.17
2022-08-25T05:03:30.319Z,1012.15
2022-08-25T05:04:30.411Z,1012.16
2022-08-25T05:05:30.377Z,1012.13
2022-08-25T05:06:30.431Z,1012.13
2022-08-25T05:07:30.431Z,1012.10
2022-08-25T05:08:30.520Z,1012.14
2022-08-25T05:09:32.258Z,1012.10
2022-08-25T05:10:30.518Z,1012.11
2022-08-25T05:11:30.545Z,1012.11
2022-08-25T05:12:30.573Z,1012.12
2022-08-25T05:13:30.600Z,1012.12
2022-08-25T05:14:30.633Z,1012.11
2022-08-25T05:15:30.659Z,1012.15
2022-08-25T05:16:30.769Z,1012.15
2022-08-25T05:17:30.714Z,1012.16
2022-08-25T05:18:30.750Z,1012.15
2022-08-25T05:19:30.772Z,1012.15
2022-08-25T05:20:30.798Z,1012.15
2022-08-25T05:21:30.824Z,1012.13
2022-08-25T05:22:30.854Z,1012.15
2022-08-25T05:23:30.884Z,1012.14
2022-08-25T05:24:30.914Z,1012.17
2022-08-25T05:25:30.941Z,1012.16
2022-08-25T05:26:30.971Z,1012.16
2022-08-25T05:27:30.994Z,1012.15
2022-08-25T05:28:31.025Z,1012.10
2022-08-25T05:29:31.054Z,1012.15
2022-08-25T05:30:31.089Z,1012.19
2022-08-25T05:31:31.156Z,1012.19
2022-08-25T05:32:31.143Z,1012.18
2022-08-25T05:33:32.878Z,1012.16
2022-08-25T05:34:31.204Z,1012.20
2022-08-25T05:35:31.225Z,1012.22
2022-08-25T05:36:31.252Z,1012.25
2022-08-25T05:37:31.281Z,1012.26
2022-08-25T05:38:31.310Z,1012.24
2022-08-25T05:39:31.341Z,1012.26
2022-08-25T05:40:31.406Z,1012.24
2022-08-25T05:41:31.394Z,1012.24
2022-08-25T05:42:31.426Z,1012.24
2022-08-25T05:43:31.452Z,1012.27
2022-08-25T05:44:31.483Z,1012.28
2022-08-25T05:45:31.528Z,1012.28
2022-08-25T05:46:31.780Z,1012.29
2022-08-25T05:47:31.567Z,1012.29
2022-08-25T05:48:31.598Z,1012.31
2022-08-25T05:49:31.621Z,1012.31
2022-08-25T05:50:31.655Z,1012.30
2022-08-25T05:51:31.682Z,1012.30
2022-08-25T05:52:31.708Z,1012.32
2022-08-25T05:53:32.969Z,1012.30
2022-08-25T05:54:31.776Z,1012.29
2022-08-25T05:55:31.796Z,1012.27
2022-08-25T05:56:31.827Z,1012.26
2022-08-25T05:57:31.854Z,1012.25
2022-08-25T05:58:31.885Z,1012.23
2022-08-25T05:59:31.919Z,1012.26
2022-08-25T06:00:31.943Z,1012.24
2022-08-25T06:01:32.012Z,1012.20
2022-08-25T06:02:32.003Z,1012.23
2022-08-25T06:03:32.094Z,1012.17
2022-08-25T06:04:32.055Z,1012.17
2022-08-25T06:05:32.097Z,1012.17
2022-08-25T06:06:32.117Z,1012.17
2022-08-25T06:07:32.145Z,1012.18
2022-08-25T06:08:32.178Z,1012.17
2022-08-25T06:09:32.214Z,1012.16
2022-08-25T06:10:32.233Z,1012.12
2022-08-25T06:11:32.265Z,1012.10
2022-08-25T06:12:32.295Z,1012.11
2022-08-25T06:13:32.319Z,1012.10
2022-08-25T06:14:32.350Z,1012.07
2022-08-25T06:15:32.379Z,1012.08
2022-08-25T06:16:32.495Z,1012.07
2022-08-25T06:17:32.438Z,1012.11
2022-08-25T06:18:32.469Z,1012.07
2022-08-25T06:19:32.505Z,1012.07
2022-08-25T06:20:32.530Z,1012.04
2022-08-25T06:21:32.563Z,1012.04
2022-08-25T06:22:32.592Z,1012.10
2022-08-25T06:23:32.620Z,1012.03
2022-08-25T06:24:32.647Z,1012.05
2022-08-25T06:25:32.690Z,1012.08
2022-08-25T06:26:32.712Z,1012.14
2022-08-25T06:27:32.748Z,1012.12
2022-08-25T06:28:32.775Z,1012.14
2022-08-25T06:29:32.807Z,1012.17
2022-08-25T06:30:32.841Z,1012.24
2022-08-25T06:31:32.951Z,1012.20
2022-08-25T06:32:32.900Z,1012.22
2022-08-25T06:33:32.937Z,1012.21
2022-08-25T06:34:32.977Z,1012.21
2022-08-25T06:35:33.000Z,1012.20
2022-08-25T06:36:33.061Z,1012.21
2022-08-25T06:37:33.067Z,1012.20
2022-08-25T06:38:33.099Z,1012.20
2022-08-25T06:39:33.135Z,1012.22
2022-08-25T06:40:33.234Z,1012.23
2022-08-25T06:41:36.711Z,1012.25
2022-08-25T06:42:33.235Z,1012.24
2022-08-25T06:43:33.270Z,1012.21
2022-08-25T06:44:33.303Z,1012.23
2022-08-25T06:45:33.335Z,1012.21
2022-08-25T06:46:36.750Z,1012.26
2022-08-25T06:47:33.405Z,1012.23
2022-08-25T06:48:33.435Z,1012.23
2022-08-25T06:49:36.194Z,1012.25
2022-08-25T06:50:33.507Z,1012.19
2022-08-25T06:51:33.541Z,1012.22
2022-08-25T06:52:33.574Z,1012.19
2022-08-25T06:53:33.610Z,1012.23
2022-08-25T06:54:33.645Z,1012.25
2022-08-25T06:55:33.675Z,1012.25
2022-08-25T06:56:33.711Z,1012.20
2022-08-25T06:57:33.746Z,1012.23
2022-08-25T06:58:33.784Z,1012.21
2022-08-25T06:59:33.822Z,1012.27
2022-08-25T07:00:33.868Z,1012.23
2022-08-25T07:01:33.977Z,1012.19
2022-08-25T07:02:35.347Z,1012.18
2022-08-25T07:03:33.955Z,1012.20
2022-08-25T07:04:33.988Z,1012.16
2022-08-25T07:05:43.158Z,1012.17
2022-08-25T07:06:34.058Z,1012.16
2022-08-25T07:07:44.197Z,1012.16
2022-08-25T07:08:34.126Z,1012.16
2022-08-25T07:09:38.591Z,1012.16
2022-08-25T07:10:34.197Z,1012.11
2022-08-25T07:11:34.231Z,1012.15
2022-08-25T07:12:34.256Z,1012.15
2022-08-25T07:13:34.292Z,1012.13
2022-08-25T07:14:34.326Z,1012.13
2022-08-25T07:15:34.357Z,1012.16
2022-08-25T07:16:34.464Z,1012.15
2022-08-25T07:17:34.421Z,1012.14
2022-08-25T07:18:34.459Z,1012.10
2022-08-25T07:19:34.486Z,1012.13
2022-08-25T07:20:34.520Z,1012.15
2022-08-25T07:21:35.767Z,1012.17
2022-08-25T07:22:34.587Z,1012.15
2022-08-25T07:23:34.619Z,1012.15
2022-08-25T07:24:34.650Z,1012.17
2022-08-25T07:25:34.683Z,1012.16
2022-08-25T07:26:37.713Z,1012.17
2022-08-25T07:27:34.746Z,1012.19
2022-08-25T07:28:34.782Z,1012.16
2022-08-25T07:29:34.813Z,1012.15
2022-08-25T07:30:34.841Z,1012.16
2022-08-25T07:31:34.994Z,1012.18
2022-08-25T07:32:34.906Z,1012.18
2022-08-25T07:33:34.940Z,1012.14
2022-08-25T07:34:34.971Z,1012.16
2022-08-25T07:36:35.033Z,1012.18
2022-08-25T07:37:50.009Z,1012.24
2022-08-25T07:38:35.097Z,1012.17
2022-08-25T07:39:35.131Z,1012.23
2022-08-25T07:40:35.213Z,1012.19
2022-08-25T07:41:35.197Z,1012.20
2022-08-25T07:42:35.227Z,1012.21
2022-08-25T07:43:35.260Z,1012.22
2022-08-25T07:44:35.293Z,1012.23
2022-08-25T07:45:35.325Z,1012.22
2022-08-25T07:46:35.425Z,1012.22
2022-08-25T07:47:35.392Z,1012.24
2022-08-25T07:48:35.475Z,1012.26
2022-08-25T07:49:39.653Z,1012.25
2022-08-25T07:50:35.482Z,1012.24
2022-08-25T07:51:35.518Z,1012.27
2022-08-25T07:52:35.544Z,1012.25
2022-08-25T07:53:35.581Z,1012.25
2022-08-25T07:54:35.743Z,1012.24
2022-08-25T07:55:35.645Z,1012.25
2022-08-25T07:56:35.676Z,1012.21
2022-08-25T07:57:35.710Z,1012.20
2022-08-25T07:58:35.740Z,1012.28
2022-08-25T07:59:39.692Z,1012.23
2022-08-25T08:00:36.009Z,1012.24
2022-08-25T08:01:35.886Z,1012.24
2022-08-25T08:02:35.912Z,1012.20
2022-08-25T08:03:50.648Z,1012.21
2022-08-25T08:04:35.959Z,1012.23
2022-08-25T08:05:35.966Z,1012.26
2022-08-25T08:06:35.998Z,1012.29
2022-08-25T08:07:43.087Z,1012.29
2022-08-25T08:08:36.061Z,1012.26
2022-08-25T08:09:36.094Z,1012.28
2022-08-25T08:11:03.325Z,1012.29
2022-08-25T08:11:36.163Z,1012.32
2022-08-25T08:12:36.195Z,1012.31
2022-08-25T08:13:41.146Z,1012.27
2022-08-25T08:14:36.261Z,1012.29
2022-08-25T08:15:36.289Z,1012.31
2022-08-25T08:16:36.391Z,1012.26
2022-08-25T08:17:36.377Z,1012.24
2022-08-25T08:18:36.422Z,1012.24
2022-08-25T08:19:36.423Z,1012.21
2022-08-25T08:20:42.604Z,1012.22
2022-08-25T08:21:36.488Z,1012.27
2022-08-25T08:22:36.520Z,1012.23
2022-08-25T08:23:36.552Z,1012.23
2022-08-25T08:24:44.557Z,1012.24
2022-08-25T08:25:36.618Z,1012.26
2022-08-25T08:26:57.846Z,1012.18
2022-08-25T08:27:36.683Z,1012.16
2022-08-25T08:28:36.723Z,1012.15
2022-08-25T08:29:36.747Z,1012.13
2022-08-25T08:30:36.822Z,1012.05
2022-08-25T08:31:37.035Z,1012.12
2022-08-25T08:33:05.855Z,1012.10
2022-08-25T08:33:40.810Z,1012.09
2022-08-25T08:34:36.908Z,1012.08
2022-08-25T08:35:36.945Z,1012.07
2022-08-25T08:36:36.972Z,1012.07
2022-08-25T08:37:37.010Z,1012.07
2022-08-25T08:38:37.037Z,1011.99
2022-08-25T08:39:37.101Z,1011.96
2022-08-25T08:40:37.188Z,1011.97
2022-08-25T08:42:07.222Z,1011.91
2022-08-25T08:42:37.169Z,1011.94
2022-08-25T08:43:37.206Z,1011.95
2022-08-25T08:44:37.235Z,1011.94
2022-08-25T08:45:40.377Z,1011.96
2022-08-25T08:46:37.344Z,1011.94
2022-08-25T08:47:37.336Z,1011.92
2022-08-25T08:48:37.372Z,1011.94
2022-08-25T08:49:37.403Z,1011.93
2022-08-25T08:50:37.434Z,1011.95
2022-08-25T08:51:37.468Z,1011.92
2022-08-25T08:52:37.500Z,1011.89
2022-08-25T08:53:37.537Z,1011.88
2022-08-25T08:54:37.565Z,1011.88
2022-08-25T08:55:37.599Z,1011.86
2022-08-25T08:56:37.631Z,1011.87
2022-08-25T08:57:37.690Z,1011.88
2022-08-25T08:58:37.699Z,1011.86
2022-08-25T08:59:37.732Z,1011.89
2022-08-25T09:00:37.761Z,1011.84
2022-08-25T09:01:37.812Z,1011.88
2022-08-25T09:02:39.565Z,1011.86
2022-08-25T09:03:39.710Z,1011.85
2022-08-25T09:04:37.893Z,1011.85
2022-08-25T09:05:42.763Z,1011.85
2022-08-25T09:06:37.963Z,1011.86
2022-08-25T09:07:37.995Z,1011.87
2022-08-25T09:08:38.049Z,1011.80
2022-08-25T09:09:38.062Z,1011.85
2022-08-25T09:10:38.093Z,1011.80
2022-08-25T09:11:38.124Z,1011.82
2022-08-25T09:12:38.182Z,1011.79
2022-08-25T09:13:38.305Z,1011.81
2022-08-25T09:14:38.226Z,1011.83
2022-08-25T09:15:41.121Z,1011.85
2022-08-25T09:16:38.312Z,1011.85
2022-08-25T09:17:38.326Z,1011.81
2022-08-25T09:18:41.032Z,1011.83
2022-08-25T09:19:41.925Z,1011.79
2022-08-25T09:20:38.421Z,1011.80
2022-08-25T09:21:38.460Z,1011.77
2022-08-25T09:22:38.490Z,1011.71
2022-08-25T09:23:38.528Z,1011.74
2022-08-25T09:24:38.552Z,1011.74
2022-08-25T09:25:54.404Z,1011.76
2022-08-25T09:26:38.627Z,1011.74
2022-08-25T09:27:38.659Z,1011.68
2022-08-25T09:28:38.710Z,1011.72
2022-08-25T09:29:38.723Z,1011.65
2022-08-25T09:30:38.771Z,1011.52
2022-08-25T09:31:38.906Z,1011.60
2022-08-25T09:32:38.824Z,1011.54
2022-08-25T09:33:38.853Z,1011.54
2022-08-25T09:34:38.885Z,1011.51
2022-08-25T09:35:38.931Z,1011.51
2022-08-25T09:36:38.956Z,1011.50
2022-08-25T09:37:38.990Z,1011.51
2022-08-25T09:38:39.022Z,1011.52
2022-08-25T09:39:39.056Z,1011.54
2022-08-25T09:40:39.087Z,1011.53
2022-08-25T09:41:39.119Z,1011.49
2022-08-25T09:42:39.172Z,1011.49
2022-08-25T09:43:39.188Z,1011.49
2022-08-25T09:44:39.222Z,1011.46
2022-08-25T09:45:39.256Z,1011.43
2022-08-25T09:46:39.328Z,1011.45
2022-08-25T09:47:39.322Z,1011.52
2022-08-25T09:48:40.954Z,1011.48
2022-08-25T09:49:39.388Z,1011.41
2022-08-25T09:50:41.826Z,1011.43
2022-08-25T09:51:42.955Z,1011.44
2022-08-25T09:52:41.445Z,1011.39
2022-08-25T09:53:39.520Z,1011.32
2022-08-25T09:54:46.750Z,1011.29
2022-08-25T09:55:39.587Z,1011.33
2022-08-25T09:56:39.623Z,1011.24
2022-08-25T09:57:39.656Z,1011.26
2022-08-25T09:58:39.686Z,1011.24
2022-08-25T09:59:39.720Z,1011.20
2022-08-25T10:00:39.755Z,1011.14
2022-08-25T10:01:39.823Z,1011.17
2022-08-25T10:02:39.829Z,1011.12
2022-08-25T10:03:39.858Z,1011.15
2022-08-25T10:04:40.123Z,1011.09
2022-08-25T10:05:39.922Z,1011.08
2022-08-25T10:06:39.955Z,1011.05
2022-08-25T10:07:39.990Z,1011.08
2022-08-25T10:08:40.052Z,1011.02
2022-08-25T10:09:40.059Z,1010.99
2022-08-25T10:10:41.860Z,1010.99
2022-08-25T10:11:40.125Z,1010.99
2022-08-25T10:12:42.781Z,1010.96
2022-08-25T10:13:40.189Z,1010.96
2022-08-25T10:14:44.563Z,1010.95
2022-08-25T10:15:40.294Z,1010.94
2022-08-25T10:16:40.323Z,1010.92
2022-08-25T10:17:40.322Z,1010.89
2022-08-25T10:18:40.355Z,1010.89
2022-08-25T10:19:40.393Z,1010.92
2022-08-25T10:20:44.379Z,1010.93
2022-08-25T10:21:40.458Z,1010.86
2022-08-25T10:22:40.490Z,1010.90
2022-08-25T10:23:40.525Z,1010.88
2022-08-25T10:24:40.968Z,1010.86
2022-08-25T10:25:40.593Z,1010.81
2022-08-25T10:26:40.619Z,1010.78
2022-08-25T10:27:40.656Z,1010.81
2022-08-25T10:28:40.697Z,1010.85
2022-08-25T10:29:40.799Z,1010.83
2022-08-25T10:30:40.799Z,1010.80
2022-08-25T10:31:41.324Z,1010.78
2022-08-25T10:32:40.826Z,1010.80
2022-08-25T10:33:40.858Z,1010.77
2022-08-25T10:34:44.501Z,1010.73
2022-08-25T10:35:40.924Z,1010.69
2022-08-25T10:36:40.971Z,1010.63
2022-08-25T10:37:40.993Z,1010.61
2022-08-25T10:38:43.081Z,1010.61
2022-08-25T10:39:41.088Z,1010.62
2022-08-25T10:40:41.151Z,1010.56
2022-08-25T10:41:41.130Z,1010.63
2022-08-25T10:42:42.764Z,1010.61
2022-08-25T10:43:41.196Z,1010.63
2022-08-25T10:44:41.233Z,1010.62
2022-08-25T10:45:41.263Z,1010.59
2022-08-25T10:46:41.352Z,1010.55
2022-08-25T10:47:48.508Z,1010.49
2022-08-25T10:49:45.837Z,1010.45
2022-08-25T10:50:45.755Z,1010.44
2022-08-25T10:52:49.467Z,1010.44
2022-08-25T10:53:49.459Z,1010.38
2022-08-25T10:55:53.969Z,1010.33
2022-08-25T10:56:53.526Z,1010.33
2022-08-25T10:58:57.552Z,1010.30
2022-08-25T10:59:57.577Z,1010.30
2022-08-25T11:02:02.125Z,1010.26
2022-08-25T11:03:01.680Z,1010.22
2022-08-25T11:05:05.787Z,1010.12
2022-08-25T11:06:05.733Z,1010.16
2022-08-25T11:08:10.739Z,1010.28
2022-08-25T11:09:10.318Z,1010.19
2022-08-25T11:10:10.342Z,1010.18
2022-08-25T11:11:10.350Z,1010.22
2022-08-25T11:12:10.388Z,1010.17
2022-08-25T11:13:11.352Z,1010.17
2022-08-25T11:14:11.301Z,1010.19
2022-08-25T11:15:10.486Z,1010.14
2022-08-25T11:16:19.270Z,1010.16
2022-08-25T11:17:10.618Z,1010.15
2022-08-25T11:18:13.993Z,1010.15
2022-08-25T11:19:10.622Z,1010.14
2022-08-25T11:20:13.112Z,1010.16
2022-08-25T11:21:10.706Z,1010.11
2022-08-25T11:22:10.728Z,1010.12
2022-08-25T11:23:11.344Z,1010.09
2022-08-25T11:24:10.808Z,1010.07
2022-08-25T11:25:10.831Z,1010.09
2022-08-25T11:26:10.862Z,1010.11
2022-08-25T11:27:13.762Z,1010.12
2022-08-25T11:28:10.977Z,1010.09
2022-08-25T11:29:12.126Z,1010.18
2022-08-25T11:30:11.003Z,1010.14
2022-08-25T11:31:11.083Z,1010.16
2022-08-25T11:32:11.071Z,1010.13
2022-08-25T11:33:11.107Z,1010.15
2022-08-25T11:34:11.139Z,1010.08
2022-08-25T11:35:12.146Z,1010.09
2022-08-25T11:36:11.210Z,1010.16
2022-08-25T11:37:11.518Z,1010.11
2022-08-25T11:38:11.295Z,1010.10
2022-08-25T11:39:11.341Z,1010.12
2022-08-25T11:40:11.385Z,1010.14
2022-08-25T11:41:11.699Z,1010.10
2022-08-25T11:42:11.421Z,1010.09
2022-08-25T11:43:11.452Z,1010.15
2022-08-25T11:44:11.487Z,1010.16
2022-08-25T11:45:11.532Z,1010.16
2022-08-25T11:46:11.638Z,1010.13
2022-08-25T11:47:19.115Z,1010.15
2022-08-25T11:48:11.631Z,1010.20
2022-08-25T11:49:11.665Z,1010.13
2022-08-25T11:50:11.694Z,1010.18
2022-08-25T11:51:11.727Z,1010.20
2022-08-25T11:52:11.764Z,1010.17
2022-08-25T11:53:11.803Z,1010.19
2022-08-25T11:54:11.833Z,1010.16
2022-08-25T11:55:11.870Z,1010.15
2022-08-25T11:56:11.912Z,1010.14
2022-08-25T11:57:11.938Z,1010.14
2022-08-25T11:58:11.986Z,1010.12
2022-08-25T11:59:12.005Z,1010.14
2022-08-25T12:00:12.040Z,1010.10
2022-08-25T12:01:12.074Z,1010.16
2022-08-25T12:02:12.109Z,1010.15
2022-08-25T12:03:12.143Z,1010.07
2022-08-25T12:04:12.202Z,1010.08
2022-08-25T12:05:12.359Z,1010.06
2022-08-25T12:06:12.252Z,1010.04
2022-08-25T12:07:12.281Z,1010.02
2022-08-25T12:08:12.336Z,1010.03
2022-08-25T12:09:12.351Z,1009.95
2022-08-25T12:10:12.395Z,1009.99
2022-08-25T12:11:12.426Z,1009.93
2022-08-25T12:12:12.456Z,1009.97
2022-08-25T12:13:12.495Z,1009.90
2022-08-25T12:14:12.522Z,1009.94
2022-08-25T12:15:12.556Z,1009.93
2022-08-25T12:16:12.614Z,1009.92
2022-08-25T12:17:12.631Z,1009.97
2022-08-25T12:18:12.930Z,1009.97
2022-08-25T12:19:12.704Z,1010.00
2022-08-25T12:20:12.735Z,1009.98
2022-08-25T12:21:12.769Z,1009.96
2022-08-25T12:22:12.805Z,1009.95
2022-08-25T12:23:12.845Z,1009.94
2022-08-25T12:24:12.909Z,1009.93
2022-08-25T12:25:12.910Z,1009.96
2022-08-25T12:26:12.945Z,1009.93
2022-08-25T12:27:12.979Z,1009.90
2022-08-25T12:28:13.015Z,1009.87
2022-08-25T12:29:13.049Z,1009.88
2022-08-25T12:30:16.069Z,1009.81
2022-08-25T12:31:13.169Z,1009.85
2022-08-25T12:32:13.153Z,1009.80
2022-08-25T12:33:13.192Z,1009.79
2022-08-25T12:34:13.226Z,1009.88
2022-08-25T12:35:13.262Z,1009.80
2022-08-25T12:36:13.295Z,1009.81
2022-08-25T12:37:13.334Z,1009.78
2022-08-25T12:38:13.366Z,1009.83
2022-08-25T12:39:13.403Z,1009.83
2022-08-25T12:40:13.468Z,1009.83
2022-08-25T12:41:13.487Z,1009.79
2022-08-25T12:42:13.511Z,1009.75
2022-08-25T12:43:13.553Z,1009.74
2022-08-25T12:44:13.581Z,1009.71
2022-08-25T12:45:13.617Z,1009.71
2022-08-25T12:46:13.717Z,1009.69
2022-08-25T12:47:13.688Z,1009.67
2022-08-25T12:48:13.720Z,1009.70
2022-08-25T12:49:13.759Z,1009.70
2022-08-25T12:50:13.793Z,1009.69
2022-08-25T12:51:13.829Z,1009.66